createdAt,value
2023-11-25T00:01:01.914Z,12.35
2023-11-25T00:02:05.190Z,13.43
2023-11-25T00:03:08.259Z,11.77
2023-11-25T00:04:11.253Z,11.80
2023-11-25T00:05:14.298Z,12.02
2023-11-25T00:06:17.048Z,12.18
2023-11-25T00:07:21.471Z,12.20
2023-11-25T00:08:26.369Z,11.50
2023-11-25T00:09:29.264Z,11.95
2023-11-25T00:10:31.976Z,12.15
2023-11-25T00:11:34.944Z,12.82
2023-11-25T00:12:37.941Z,12.57
2023-11-25T00:13:41.097Z,12.60
2023-11-25T00:14:45.007Z,12.23
2023-11-25T00:15:47.944Z,12.68
2023-11-25T00:16:52.308Z,11.93
2023-11-25T00:17:56.305Z,12.70
2023-11-25T00:18:58.982Z,11.80
2023-11-25T00:20:02.131Z,12.45
2023-11-25T00:21:05.143Z,12.02
2023-11-25T00:22:08.100Z,13.05
2023-11-25T00:23:11.087Z,13.48
2023-11-25T00:24:13.811Z,12.65
2023-11-25T00:25:17.116Z,11.88
2023-11-25T00:26:20.615Z,13.27
2023-11-25T00:27:25.645Z,12.70
2023-11-25T00:28:28.816Z,13.77
2023-11-25T00:29:31.740Z,13.07
2023-11-25T00:30:34.877Z,12.85
2023-11-25T00:31:37.694Z,14.02
2023-11-25T00:32:40.502Z,13.65
2023-11-25T00:33:43.840Z,13.52
2023-11-25T00:34:46.476Z,14.00
2023-11-25T00:35:49.391Z,14.05
2023-11-25T00:36:55.080Z,13.25
2023-11-25T00:37:57.899Z,13.70
2023-11-25T00:39:01.027Z,13.98
2023-11-25T00:40:11.629Z,13.20
2023-11-25T00:41:14.599Z,15.05
2023-11-25T00:42:17.476Z,15.10
2023-11-25T00:43:20.159Z,14.70
2023-11-25T00:44:23.428Z,14.80
2023-11-25T00:45:28.020Z,15.40
2023-11-25T00:46:31.260Z,14.77
2023-11-25T00:47:34.400Z,15.13
2023-11-25T00:48:37.252Z,14.40
2023-11-25T00:49:41.606Z,14.40
2023-11-25T00:50:44.233Z,15.10
2023-11-25T00:51:47.224Z,14.57
2023-11-25T00:52:49.914Z,14.73
2023-11-25T00:53:52.602Z,14.05
2023-11-25T00:54:56.051Z,14.80
2023-11-25T00:55:58.685Z,14.82
2023-11-25T00:57:05.011Z,14.10
2023-11-25T00:58:08.540Z,13.85
2023-11-25T00:59:11.421Z,14.18
2023-11-25T01:00:17.763Z,14.18
2023-11-25T01:01:21.416Z,12.97
2023-11-25T01:02:25.256Z,12.68
2023-11-25T01:03:28.948Z,12.75
2023-11-25T01:04:31.834Z,13.10
2023-11-25T01:05:34.998Z,13.40
2023-11-25T01:06:37.948Z,12.65
2023-11-25T01:07:40.857Z,12.73
2023-11-25T01:08:43.565Z,13.20
2023-11-25T01:09:46.225Z,12.13
2023-11-25T01:10:49.263Z,12.77
2023-11-25T01:11:52.087Z,12.43
2023-11-25T01:12:54.651Z,14.02
2023-11-25T01:13:58.276Z,12.85
2023-11-25T01:15:00.862Z,13.10
2023-11-25T01:16:06.184Z,12.75
2023-11-25T01:17:10.548Z,13.60
2023-11-25T01:18:13.534Z,12.45
2023-11-25T01:19:16.204Z,12.85
2023-11-25T01:20:19.228Z,12.37
2023-11-25T01:21:22.397Z,12.43
2023-11-25T01:22:25.974Z,11.03
2023-11-25T01:23:28.579Z,11.57
2023-11-25T01:24:31.527Z,9.70
2023-11-25T01:25:34.235Z,9.98
2023-11-25T01:26:37.361Z,8.88
2023-11-25T01:27:40.127Z,9.55
2023-11-25T01:28:43.504Z,8.68
2023-11-25T01:29:47.109Z,8.88
2023-11-25T01:30:50.336Z,8.77
2023-11-25T01:31:53.450Z,8.45
2023-11-25T01:32:56.404Z,9.07
2023-11-25T01:33:59.273Z,11.43
2023-11-25T01:35:02.348Z,12.50
2023-11-25T01:36:06.053Z,12.55
2023-11-25T01:37:09.941Z,13.07
2023-11-25T01:38:13.026Z,13.93
2023-11-25T01:39:16.034Z,11.63
2023-11-25T01:40:18.767Z,11.10
2023-11-25T01:41:21.341Z,11.43
2023-11-25T01:42:25.993Z,10.45
2023-11-25T01:43:29.051Z,10.13
2023-11-25T01:44:33.240Z,10.40
2023-11-25T01:45:36.143Z,9.48
2023-11-25T01:46:39.755Z,9.00
2023-11-25T01:47:43.807Z,8.45
2023-11-25T01:48:47.273Z,8.63
2023-11-25T01:49:51.114Z,8.35
2023-11-25T01:50:54.142Z,8.25
2023-11-25T01:51:57.010Z,7.50
2023-11-25T01:53:00.686Z,7.68
2023-11-25T01:54:07.628Z,8.50
2023-11-25T01:55:12.671Z,8.15
2023-11-25T01:56:18.684Z,8.98
2023-11-25T01:57:21.885Z,9.10
2023-11-25T01:58:24.963Z,8.60
2023-11-25T01:59:28.848Z,8.88
2023-11-25T02:00:31.549Z,9.10
2023-11-25T02:02:38.523Z,9.50
2023-11-25T02:03:42.042Z,8.30
2023-11-25T02:04:44.992Z,8.50
2023-11-25T02:05:48.007Z,8.13
2023-11-25T02:06:51.385Z,9.07
2023-11-25T02:07:54.299Z,9.25
2023-11-25T02:08:57.210Z,8.95
2023-11-25T02:09:59.938Z,8.93
2023-11-25T02:11:02.519Z,8.73
2023-11-25T02:12:06.137Z,9.23
2023-11-25T02:13:09.690Z,9.18
2023-11-25T02:14:13.126Z,8.50
2023-11-25T02:15:19.743Z,8.80
2023-11-25T02:16:22.929Z,10.43
2023-11-25T02:17:26.096Z,10.57
2023-11-25T02:18:29.004Z,10.90
2023-11-25T02:19:32.978Z,10.63
2023-11-25T02:20:42.200Z,10.90
2023-11-25T02:21:46.145Z,10.40
2023-11-25T02:22:58.659Z,10.18
2023-11-25T02:24:01.580Z,10.02
2023-11-25T02:25:06.001Z,9.57
2023-11-25T02:26:09.483Z,8.73
2023-11-25T02:27:13.354Z,9.25
2023-11-25T02:28:17.803Z,8.50
2023-11-25T02:29:20.491Z,8.50
2023-11-25T02:30:27.958Z,8.43
2023-11-25T02:31:30.973Z,8.60
2023-11-25T02:32:34.893Z,8.77
2023-11-25T02:33:37.989Z,9.20
2023-11-25T02:34:41.147Z,8.98
2023-11-25T02:35:45.282Z,10.10
2023-11-25T02:36:49.790Z,8.30
2023-11-25T02:37:52.772Z,9.40
2023-11-25T02:38:55.370Z,9.20
2023-11-25T02:39:58.076Z,9.05
2023-11-25T02:41:01.042Z,9.13
2023-11-25T02:42:07.068Z,9.30
2023-11-25T02:43:09.724Z,8.18
2023-11-25T02:44:13.333Z,8.95
2023-11-25T02:45:19.771Z,8.65
2023-11-25T02:46:24.899Z,8.65
2023-11-25T02:47:27.876Z,8.50
2023-11-25T02:48:31.481Z,8.20
2023-11-25T02:49:34.222Z,8.77
2023-11-25T02:50:37.942Z,8.98
2023-11-25T02:51:56.942Z,10.65
2023-11-25T02:52:59.912Z,13.27
2023-11-25T02:54:02.822Z,14.98
2023-11-25T02:55:06.154Z,14.40
2023-11-25T02:56:09.087Z,15.43
2023-11-25T02:57:13.245Z,16.85
2023-11-25T02:58:16.505Z,15.83
2023-11-25T02:59:19.656Z,15.50
2023-11-25T03:01:31.014Z,15.25
2023-11-25T03:02:34.974Z,13.82
2023-11-25T03:03:43.203Z,13.27
2023-11-25T03:04:49.079Z,12.55
2023-11-25T03:05:54.450Z,12.70
2023-11-25T03:06:59.341Z,12.57
2023-11-25T03:08:02.541Z,11.38
2023-11-25T03:09:07.589Z,11.13
2023-11-25T03:10:11.192Z,12.75
2023-11-25T03:11:19.822Z,10.68
2023-11-25T03:12:23.830Z,10.98
2023-11-25T03:13:27.024Z,11.80
2023-11-25T03:14:29.644Z,9.98
2023-11-25T03:15:32.892Z,11.05
2023-11-25T03:16:36.333Z,9.73
2023-11-25T03:17:39.982Z,9.82
2023-11-25T03:18:43.194Z,10.10
2023-11-25T03:19:46.605Z,9.53
2023-11-25T03:20:49.952Z,8.82
2023-11-25T03:21:53.949Z,9.15
2023-11-25T03:22:56.967Z,9.18
2023-11-25T03:24:00.701Z,9.27
2023-11-25T03:25:06.249Z,9.38
2023-11-25T03:26:13.289Z,9.40
2023-11-25T03:27:16.810Z,8.98
2023-11-25T03:28:21.275Z,8.50
2023-11-25T03:29:24.456Z,8.38
2023-11-25T03:30:30.005Z,8.10
2023-11-25T03:31:34.431Z,8.55
2023-11-25T03:32:37.475Z,8.60
2023-11-25T03:33:40.225Z,9.23
2023-11-25T03:34:43.514Z,9.10
2023-11-25T03:35:46.447Z,9.20
2023-11-25T03:36:49.132Z,8.73
2023-11-25T03:37:52.085Z,9.05
2023-11-25T03:38:55.494Z,8.93
2023-11-25T03:39:58.724Z,8.90
2023-11-25T03:41:02.726Z,9.13
2023-11-25T03:42:05.943Z,9.80
2023-11-25T03:43:09.824Z,9.13
2023-11-25T03:44:12.987Z,9.00
2023-11-25T03:45:17.041Z,8.40
2023-11-25T03:46:19.901Z,10.13
2023-11-25T03:47:22.917Z,9.10
2023-11-25T03:48:25.735Z,9.80
2023-11-25T03:49:28.389Z,11.15
2023-11-25T03:50:31.692Z,10.85
2023-11-25T03:51:34.724Z,11.43
2023-11-25T03:52:37.594Z,10.95
2023-11-25T03:53:40.234Z,10.40
2023-11-25T03:54:42.847Z,10.57
2023-11-25T03:55:45.886Z,10.63
2023-11-25T03:56:50.230Z,10.93
2023-11-25T03:57:53.113Z,13.15
2023-11-25T03:58:55.995Z,13.68
2023-11-25T03:59:58.839Z,13.82
2023-11-25T04:01:02.538Z,12.35
2023-11-25T04:02:05.701Z,12.43
2023-11-25T04:03:10.133Z,11.85
2023-11-25T04:04:13.263Z,11.18
2023-11-25T04:05:19.585Z,11.27
2023-11-25T04:06:27.240Z,10.27
2023-11-25T04:07:32.115Z,10.77
2023-11-25T04:08:35.053Z,9.95
2023-11-25T04:09:37.974Z,10.55
2023-11-25T04:10:40.615Z,12.23
2023-11-25T04:11:43.907Z,11.57
2023-11-25T04:12:48.266Z,11.20
2023-11-25T04:13:51.358Z,11.05
2023-11-25T04:14:54.220Z,9.75
2023-11-25T04:15:56.818Z,11.18
2023-11-25T04:16:59.776Z,11.30
2023-11-25T04:18:03.971Z,11.55
2023-11-25T04:19:06.596Z,9.32
2023-11-25T04:20:14.765Z,9.90
2023-11-25T04:21:24.361Z,10.35
2023-11-25T04:22:27.366Z,9.32
2023-11-25T04:23:31.838Z,8.97
2023-11-25T04:24:35.818Z,9.43
2023-11-25T04:25:39.198Z,8.35
2023-11-25T04:26:42.314Z,8.05
2023-11-25T04:27:49.953Z,8.10
2023-11-25T04:28:53.976Z,8.88
2023-11-25T04:29:56.878Z,8.02
2023-11-25T04:30:59.897Z,9.40
2023-11-25T04:32:02.616Z,9.50
2023-11-25T04:33:08.197Z,9.18
2023-11-25T04:34:11.412Z,8.57
2023-11-25T04:35:17.589Z,9.30
2023-11-25T04:36:20.541Z,10.27
2023-11-25T04:37:23.220Z,9.82
2023-11-25T04:38:25.896Z,10.68
2023-11-25T04:39:29.455Z,9.55
2023-11-25T04:40:32.357Z,9.52
2023-11-25T04:41:35.007Z,9.18
2023-11-25T04:42:38.137Z,9.00
2023-11-25T04:43:41.228Z,9.88
2023-11-25T04:44:44.831Z,9.00
2023-11-25T04:45:47.711Z,8.43
2023-11-25T04:46:50.411Z,8.88
2023-11-25T04:47:54.377Z,8.00
2023-11-25T04:48:57.091Z,8.65
2023-11-25T04:50:00.368Z,7.43
2023-11-25T04:51:03.463Z,7.93
2023-11-25T04:52:06.371Z,7.12
2023-11-25T04:53:09.260Z,7.25
2023-11-25T04:54:12.172Z,7.95
2023-11-25T04:55:15.814Z,6.90
2023-11-25T04:56:18.996Z,7.35
2023-11-25T04:57:21.885Z,6.82
2023-11-25T04:58:24.689Z,6.93
2023-11-25T04:59:27.488Z,6.78
2023-11-25T05:00:30.751Z,8.10
2023-11-25T05:01:33.960Z,7.30
2023-11-25T05:02:38.534Z,7.25
2023-11-25T05:03:41.558Z,7.05
2023-11-25T05:04:44.213Z,6.60
2023-11-25T05:05:47.409Z,6.80
2023-11-25T05:06:49.943Z,7.35
2023-11-25T05:07:52.602Z,7.07
2023-11-25T05:08:55.470Z,6.53
2023-11-25T05:09:58.193Z,7.28
2023-11-25T05:11:01.082Z,6.85
2023-11-25T05:12:04.124Z,7.37
2023-11-25T05:13:08.250Z,8.50
2023-11-25T05:14:11.479Z,7.85
2023-11-25T05:15:14.342Z,7.53
2023-11-25T05:16:18.534Z,7.60
2023-11-25T05:17:22.835Z,6.22
2023-11-25T05:18:25.669Z,6.45
2023-11-25T05:19:28.346Z,6.85
2023-11-25T05:20:31.195Z,6.40
2023-11-25T05:21:34.448Z,6.22
2023-11-25T05:22:37.333Z,6.00
2023-11-25T05:23:40.393Z,5.90
2023-11-25T05:24:42.993Z,5.82
2023-11-25T05:25:45.893Z,5.50
2023-11-25T05:26:48.837Z,5.40
2023-11-25T05:27:51.763Z,6.00
2023-11-25T05:28:54.616Z,5.40
2023-11-25T05:29:57.585Z,6.12
2023-11-25T05:31:00.194Z,6.00
2023-11-25T05:32:04.360Z,7.05
2023-11-25T05:33:07.258Z,6.55
2023-11-25T05:34:13.939Z,6.43
2023-11-25T05:35:17.231Z,7.43
2023-11-25T05:36:20.081Z,7.80
2023-11-25T05:37:23.873Z,7.20
2023-11-25T05:38:29.245Z,7.20
2023-11-25T05:39:32.092Z,7.57
2023-11-25T05:40:37.639Z,6.97
2023-11-25T05:41:44.209Z,6.50
2023-11-25T05:42:55.063Z,7.00
2023-11-25T05:43:59.023Z,6.43
2023-11-25T05:45:01.817Z,8.68
2023-11-25T05:46:04.536Z,9.98
2023-11-25T05:47:07.191Z,11.02
2023-11-25T05:48:10.261Z,13.97
2023-11-25T05:49:13.216Z,15.13
2023-11-25T05:50:22.253Z,13.38
2023-11-25T05:51:33.827Z,11.38
2023-11-25T05:52:36.773Z,10.40
2023-11-25T05:53:39.969Z,10.85
2023-11-25T05:54:44.195Z,9.80
2023-11-25T05:55:47.085Z,8.80
2023-11-25T05:56:50.056Z,10.88
2023-11-25T05:57:53.914Z,9.93
2023-11-25T05:59:00.255Z,8.30
2023-11-25T06:00:02.977Z,10.52
2023-11-25T06:01:14.548Z,9.35
2023-11-25T06:02:17.833Z,8.65
2023-11-25T06:03:20.498Z,8.88
2023-11-25T06:04:23.584Z,8.65
2023-11-25T06:05:28.892Z,7.40
2023-11-25T06:06:35.136Z,7.68
2023-11-25T06:07:38.855Z,7.45
2023-11-25T06:08:41.684Z,6.50
2023-11-25T06:09:44.652Z,7.43
2023-11-25T06:10:50.197Z,7.12
2023-11-25T06:11:53.136Z,6.97
2023-11-25T06:12:56.070Z,7.80
2023-11-25T06:14:01.864Z,7.47
2023-11-25T06:15:06.559Z,7.18
2023-11-25T06:16:09.204Z,6.93
2023-11-25T06:17:13.261Z,7.00
2023-11-25T06:18:18.615Z,8.70
2023-11-25T06:19:22.128Z,17.45
2023-11-25T06:20:26.657Z,23.77
2023-11-25T06:21:29.712Z,22.52
2023-11-25T06:22:32.622Z,19.62
2023-11-25T06:23:35.732Z,18.00
2023-11-25T06:24:38.956Z,16.08
2023-11-25T06:25:44.080Z,14.82
2023-11-25T06:26:49.129Z,12.20
2023-11-25T06:27:52.051Z,11.23
2023-11-25T06:28:56.569Z,10.23
2023-11-25T06:29:59.608Z,10.50
2023-11-25T06:31:05.432Z,10.40
2023-11-25T06:32:08.333Z,10.45
2023-11-25T06:33:10.931Z,10.02
2023-11-25T06:34:14.616Z,10.63
2023-11-25T06:35:17.592Z,11.55
2023-11-25T06:36:20.510Z,12.07
2023-11-25T06:37:24.632Z,14.00
2023-11-25T06:38:27.604Z,14.15
2023-11-25T06:39:33.106Z,16.20
2023-11-25T06:40:36.536Z,15.50
2023-11-25T06:41:44.373Z,14.07
2023-11-25T06:42:47.011Z,13.93
2023-11-25T06:43:51.042Z,13.70
2023-11-25T06:44:54.124Z,13.77
2023-11-25T06:45:57.115Z,15.35
2023-11-25T06:47:00.042Z,15.90
2023-11-25T06:48:03.974Z,14.05
2023-11-25T06:49:08.353Z,13.82
2023-11-25T06:50:16.915Z,12.02
2023-11-25T06:51:19.601Z,11.43
2023-11-25T06:52:22.239Z,10.50
2023-11-25T06:53:25.286Z,9.25
2023-11-25T06:54:28.232Z,9.05
2023-11-25T06:55:36.906Z,8.18
2023-11-25T06:56:39.816Z,8.60
2023-11-25T06:57:42.810Z,10.60
2023-11-25T06:58:47.042Z,8.40
2023-11-25T06:59:53.203Z,8.63
2023-11-25T07:00:59.027Z,8.43
2023-11-25T07:02:01.769Z,7.82
2023-11-25T07:03:05.316Z,7.23
2023-11-25T07:04:08.857Z,8.98
2023-11-25T07:05:11.871Z,8.85
2023-11-25T07:06:20.308Z,8.68
2023-11-25T07:07:23.250Z,8.25
2023-11-25T07:08:28.985Z,8.05
2023-11-25T07:09:31.815Z,8.52
2023-11-25T07:10:36.350Z,8.77
2023-11-25T07:11:39.689Z,8.25
2023-11-25T07:12:43.282Z,8.20
2023-11-25T07:13:46.237Z,7.87
2023-11-25T07:14:49.154Z,7.85
2023-11-25T07:15:53.102Z,7.75
2023-11-25T07:16:56.280Z,8.50
2023-11-25T07:17:59.671Z,6.95
2023-11-25T07:19:06.541Z,7.80
2023-11-25T07:20:13.528Z,8.65
2023-11-25T07:21:16.942Z,11.02
2023-11-25T07:22:22.967Z,14.60
2023-11-25T07:23:25.792Z,16.08
2023-11-25T07:24:28.814Z,16.77
2023-11-25T07:25:33.929Z,16.77
2023-11-25T07:26:44.020Z,17.37
2023-11-25T07:27:48.214Z,17.55
2023-11-25T07:28:51.139Z,19.87
2023-11-25T07:29:55.952Z,26.05
2023-11-25T07:30:58.806Z,27.15
2023-11-25T07:32:01.862Z,27.25
2023-11-25T07:33:05.347Z,26.05
2023-11-25T07:34:09.347Z,21.33
2023-11-25T07:35:14.440Z,16.87
2023-11-25T07:36:17.343Z,16.48
2023-11-25T07:37:20.440Z,14.93
2023-11-25T07:38:24.510Z,13.27
2023-11-25T07:39:30.667Z,11.73
2023-11-25T07:40:36.255Z,11.00
2023-11-25T07:42:59.622Z,9.90
2023-11-25T07:44:16.415Z,7.97
2023-11-25T07:45:22.067Z,7.93
2023-11-25T07:46:25.094Z,7.60
2023-11-25T07:47:27.913Z,6.97
2023-11-25T07:48:34.003Z,7.40
2023-11-25T07:49:39.740Z,7.85
2023-11-25T07:50:51.129Z,8.00
2023-11-25T07:51:59.185Z,8.10
2023-11-25T07:53:02.421Z,7.75
2023-11-25T07:54:05.912Z,9.23
2023-11-25T07:55:10.186Z,14.75
2023-11-25T07:56:12.841Z,18.37
2023-11-25T07:57:15.420Z,16.93
2023-11-25T07:58:19.621Z,16.33
2023-11-25T07:59:22.514Z,14.98
2023-11-25T08:00:28.515Z,13.60
2023-11-25T08:01:36.811Z,12.15
2023-11-25T08:02:39.824Z,12.05
2023-11-25T08:03:52.402Z,10.13
2023-11-25T08:04:58.478Z,9.45
2023-11-25T08:06:01.289Z,7.60
2023-11-25T08:07:04.353Z,7.20
2023-11-25T08:08:07.003Z,6.37
2023-11-25T08:09:13.398Z,7.12
2023-11-25T08:10:17.362Z,7.93
2023-11-25T08:11:27.742Z,6.93
2023-11-25T08:12:31.817Z,6.87
2023-11-25T08:13:34.497Z,6.72
2023-11-25T08:14:37.350Z,7.87
2023-11-25T08:15:39.908Z,8.95
2023-11-25T08:16:42.499Z,9.07
2023-11-25T08:17:45.676Z,10.60
2023-11-25T08:18:49.077Z,12.10
2023-11-25T08:19:52.072Z,13.75
2023-11-25T08:20:54.778Z,14.38
2023-11-25T08:21:57.668Z,15.07
2023-11-25T08:23:01.072Z,14.23
2023-11-25T08:24:04.107Z,12.10
2023-11-25T08:25:09.563Z,10.98
2023-11-25T08:26:28.599Z,10.15
2023-11-25T08:27:31.858Z,9.93
2023-11-25T08:28:34.776Z,9.45
2023-11-25T08:29:39.334Z,9.10
2023-11-25T08:30:43.215Z,8.20
2023-11-25T08:31:45.881Z,7.12
2023-11-25T08:32:48.777Z,7.90
2023-11-25T08:33:51.953Z,7.43
2023-11-25T08:34:54.798Z,7.82
2023-11-25T08:35:57.680Z,6.85
2023-11-25T08:37:00.318Z,7.60
2023-11-25T08:38:03.250Z,8.05
2023-11-25T08:39:06.491Z,8.77
2023-11-25T08:40:19.078Z,8.10
2023-11-25T08:41:22.137Z,6.90
2023-11-25T08:42:27.437Z,7.75
2023-11-25T08:43:30.481Z,7.40
2023-11-25T08:44:34.032Z,7.90
2023-11-25T08:45:38.535Z,7.15
2023-11-25T08:46:44.303Z,6.87
2023-11-25T08:47:47.127Z,6.55
2023-11-25T08:48:49.837Z,6.68
2023-11-25T08:49:52.834Z,6.60
2023-11-25T08:50:55.776Z,5.97
2023-11-25T08:51:58.676Z,6.62
2023-11-25T08:53:03.501Z,6.62
2023-11-25T08:54:06.535Z,7.68
2023-11-25T08:55:14.294Z,6.78
2023-11-25T08:56:16.937Z,7.30
2023-11-25T08:57:21.172Z,7.53
2023-11-25T08:58:27.052Z,7.80
2023-11-25T08:59:32.496Z,8.23
2023-11-25T09:00:35.485Z,8.85
2023-11-25T09:01:39.388Z,8.47
2023-11-25T09:02:44.681Z,8.23
2023-11-25T09:03:47.519Z,7.20
2023-11-25T09:04:59.684Z,7.47
2023-11-25T09:06:09.759Z,7.50
2023-11-25T09:07:15.404Z,8.70
2023-11-25T09:08:18.246Z,8.32
2023-11-25T09:09:21.821Z,8.63
2023-11-25T09:10:26.556Z,7.95
2023-11-25T09:11:30.161Z,8.20
2023-11-25T09:12:33.140Z,8.63
2023-11-25T09:13:35.724Z,8.68
2023-11-25T09:14:39.570Z,9.05
2023-11-25T09:15:43.594Z,9.10
2023-11-25T09:16:47.191Z,8.30
2023-11-25T09:17:50.029Z,8.57
2023-11-25T09:18:55.329Z,8.40
2023-11-25T09:19:58.928Z,8.32
2023-11-25T09:21:01.920Z,9.85
2023-11-25T09:22:05.412Z,8.60
2023-11-25T09:23:08.069Z,8.90
2023-11-25T09:24:10.905Z,8.35
2023-11-25T09:25:13.917Z,8.07
2023-11-25T09:26:16.803Z,8.90
2023-11-25T09:27:19.696Z,8.35
2023-11-25T09:28:22.753Z,9.82
2023-11-25T09:29:25.654Z,8.05
2023-11-25T09:30:28.553Z,8.75
2023-11-25T09:31:31.181Z,8.15
2023-11-25T09:32:34.926Z,7.53
2023-11-25T09:33:37.690Z,8.37
2023-11-25T09:34:40.699Z,9.38
2023-11-25T09:35:43.328Z,9.63
2023-11-25T09:36:46.230Z,9.88
2023-11-25T09:37:50.334Z,10.32
2023-11-25T09:38:53.377Z,10.50
2023-11-25T09:39:55.927Z,8.63
2023-11-25T09:40:58.655Z,8.95
2023-11-25T09:42:01.874Z,8.40
2023-11-25T09:43:04.831Z,9.55
2023-11-25T09:44:09.728Z,9.33
2023-11-25T09:45:13.931Z,9.43
2023-11-25T09:46:17.679Z,9.02
2023-11-25T09:47:20.546Z,9.77
2023-11-25T09:48:24.344Z,9.75
2023-11-25T09:49:27.449Z,11.07
2023-11-25T09:50:30.147Z,10.63
2023-11-25T09:51:34.204Z,9.93
2023-11-25T09:52:52.595Z,9.25
2023-11-25T09:53:58.575Z,9.30
2023-11-25T09:55:02.686Z,9.37
2023-11-25T09:56:07.178Z,8.32
2023-11-25T09:57:11.211Z,9.15
2023-11-25T09:58:18.989Z,8.48
2023-11-25T09:59:23.684Z,8.35
2023-11-25T10:00:28.296Z,8.88
2023-11-25T10:01:32.123Z,8.20
2023-11-25T10:02:37.188Z,9.07
2023-11-25T10:03:44.275Z,8.60
2023-11-25T10:04:49.086Z,7.68
2023-11-25T10:05:51.981Z,8.53
2023-11-25T10:06:55.533Z,8.85
2023-11-25T10:07:58.719Z,8.80
2023-11-25T10:09:03.039Z,8.60
2023-11-25T10:10:06.627Z,8.32
2023-11-25T10:11:09.687Z,8.50
2023-11-25T10:12:12.616Z,8.50
2023-11-25T10:13:15.579Z,9.15
2023-11-25T10:14:21.389Z,9.45
2023-11-25T10:15:24.597Z,9.80
2023-11-25T10:16:31.330Z,11.20
2023-11-25T10:17:34.593Z,11.18
2023-11-25T10:18:38.917Z,10.05
2023-11-25T10:19:41.919Z,10.70
2023-11-25T10:20:44.890Z,10.32
2023-11-25T10:21:52.172Z,10.63
2023-11-25T10:22:59.460Z,10.15
2023-11-25T10:24:09.743Z,10.25
2023-11-25T10:25:12.690Z,9.55
2023-11-25T10:26:19.194Z,10.07
2023-11-25T10:27:23.187Z,9.63
2023-11-25T10:28:27.631Z,10.80
2023-11-25T10:29:33.023Z,10.60
2023-11-25T10:30:35.957Z,9.30
2023-11-25T10:31:42.936Z,9.68
2023-11-25T10:32:45.964Z,10.35
2023-11-25T10:33:49.178Z,9.98
2023-11-25T10:34:56.823Z,9.50
2023-11-25T10:36:00.320Z,10.15
2023-11-25T10:37:06.003Z,9.13
2023-11-25T10:38:09.114Z,9.70
2023-11-25T10:39:12.427Z,10.52
2023-11-25T10:40:18.283Z,9.65
2023-11-25T10:41:21.764Z,10.05
2023-11-25T10:42:24.623Z,11.15
2023-11-25T10:43:28.850Z,11.63
2023-11-25T10:44:32.065Z,11.00
2023-11-25T10:45:35.376Z,10.05
2023-11-25T10:46:41.917Z,10.35
2023-11-25T10:47:45.607Z,10.00
2023-11-25T10:48:50.029Z,10.80
2023-11-25T10:49:53.043Z,10.15
2023-11-25T10:50:56.425Z,10.73
2023-11-25T10:52:03.451Z,11.07
2023-11-25T10:53:06.851Z,12.18
2023-11-25T10:54:10.446Z,13.45
2023-11-25T10:55:14.485Z,13.98
2023-11-25T10:56:20.744Z,13.68
2023-11-25T10:57:27.323Z,12.75
2023-11-25T10:58:32.798Z,14.13
2023-11-25T10:59:40.341Z,13.47
2023-11-25T11:00:43.630Z,14.45
2023-11-25T11:01:46.627Z,15.45
2023-11-25T11:02:54.236Z,17.98
2023-11-25T11:04:14.767Z,22.05
2023-11-25T11:05:29.815Z,24.25
2023-11-25T11:06:47.951Z,28.30
2023-11-25T11:08:02.875Z,30.42
2023-11-25T11:09:10.645Z,25.50
2023-11-25T11:10:31.366Z,26.60
2023-11-25T11:11:48.674Z,23.93
2023-11-25T11:13:03.429Z,21.52
2023-11-25T11:14:13.222Z,19.65
2023-11-25T11:15:17.080Z,17.77
2023-11-25T11:16:48.399Z,16.70
2023-11-25T11:18:20.818Z,15.30
2023-11-25T11:19:30.174Z,13.85
2023-11-25T11:20:33.822Z,15.40
2023-11-25T11:21:39.734Z,14.90
2023-11-25T11:22:46.572Z,13.85
2023-11-25T11:23:49.989Z,12.73
2023-11-25T11:25:13.949Z,13.82
2023-11-25T11:26:31.533Z,13.18
2023-11-25T11:28:00.465Z,13.88
2023-11-25T11:29:10.059Z,15.45
2023-11-25T11:30:25.119Z,16.55
2023-11-25T11:31:33.862Z,16.10
2023-11-25T11:32:38.375Z,16.80
2023-11-25T11:33:41.252Z,18.08
2023-11-25T11:34:44.990Z,18.30
2023-11-25T11:35:48.209Z,18.40
2023-11-25T11:36:52.633Z,16.95
2023-11-25T11:37:58.870Z,16.92
2023-11-25T11:39:02.574Z,16.23
2023-11-25T11:40:07.996Z,15.80
2023-11-25T11:41:12.000Z,16.67
2023-11-25T11:42:23.531Z,18.67
2023-11-25T11:43:30.119Z,17.58
2023-11-25T11:44:35.729Z,17.23
2023-11-25T11:45:38.722Z,16.85
2023-11-25T11:46:43.985Z,15.07
2023-11-25T11:47:48.842Z,15.68
2023-11-25T11:48:52.501Z,14.85
2023-11-25T11:49:55.414Z,14.57
2023-11-25T11:50:59.397Z,13.62
2023-11-25T11:52:03.824Z,14.35
2023-11-25T11:53:14.139Z,13.98
2023-11-25T11:54:22.361Z,14.70
2023-11-25T11:55:40.899Z,13.65
2023-11-25T11:57:02.452Z,13.45
2023-11-25T11:58:19.775Z,13.50
2023-11-25T11:59:22.608Z,13.62
2023-11-25T12:00:28.282Z,13.98
2023-11-25T12:01:32.845Z,13.35
2023-11-25T12:02:39.150Z,15.10
2023-11-25T12:03:42.205Z,14.82
2023-11-25T12:04:48.233Z,14.32
2023-11-25T12:05:53.128Z,15.43
2023-11-25T12:06:57.024Z,15.50
2023-11-25T12:08:02.780Z,15.88
2023-11-25T12:09:06.017Z,16.30
2023-11-25T12:10:11.632Z,15.73
2023-11-25T12:11:14.544Z,17.77
2023-11-25T12:12:17.713Z,19.67
2023-11-25T12:13:31.530Z,19.42
2023-11-25T12:14:37.006Z,17.12
2023-11-25T12:15:40.152Z,16.00
2023-11-25T12:16:44.394Z,16.15
2023-11-25T12:17:48.091Z,14.68
2023-11-25T12:18:51.104Z,14.85
2023-11-25T12:19:54.478Z,14.57
2023-11-25T12:20:58.693Z,14.30
2023-11-25T12:22:01.598Z,14.13
2023-11-25T12:23:10.904Z,13.62
2023-11-25T12:24:14.332Z,13.13
2023-11-25T12:25:20.685Z,14.40
2023-11-25T12:26:26.465Z,13.15
2023-11-25T12:27:31.331Z,13.45
2023-11-25T12:28:43.133Z,15.52
2023-11-25T12:29:46.026Z,15.85
2023-11-25T12:30:48.861Z,14.40
2023-11-25T12:31:51.568Z,13.20
2023-11-25T12:32:54.735Z,12.52
2023-11-25T12:34:01.645Z,13.18
2023-11-25T12:35:05.999Z,13.43
2023-11-25T12:36:09.401Z,13.13
2023-11-25T12:37:14.427Z,14.82
2023-11-25T12:38:19.642Z,13.62
2023-11-25T12:39:25.640Z,14.30
2023-11-25T12:40:29.420Z,14.68
2023-11-25T12:41:33.916Z,12.70
2023-11-25T12:42:36.508Z,14.15
2023-11-25T12:44:11.658Z,13.13
2023-11-25T12:45:34.226Z,13.50
2023-11-25T12:46:39.166Z,13.05
2023-11-25T12:47:51.738Z,13.10
2023-11-25T12:48:54.717Z,13.80
2023-11-25T12:50:07.070Z,14.13
2023-11-25T12:51:11.821Z,12.63
2023-11-25T12:52:24.242Z,13.32
2023-11-25T12:53:27.599Z,11.80
2023-11-25T12:54:46.975Z,11.60
2023-11-25T12:55:50.193Z,11.95
2023-11-25T12:56:55.913Z,12.57
2023-11-25T12:57:58.849Z,13.25
2023-11-25T12:59:01.811Z,12.20
2023-11-25T13:00:10.320Z,11.68
2023-11-25T13:01:13.977Z,11.88
2023-11-25T13:02:19.344Z,12.10
2023-11-25T13:03:23.339Z,13.38
2023-11-25T13:04:28.712Z,13.77
2023-11-25T13:05:33.050Z,14.10
2023-11-25T13:06:51.894Z,14.77
2023-11-25T13:07:55.249Z,14.75
2023-11-25T13:08:57.851Z,12.80
2023-11-25T13:10:01.283Z,13.10
2023-11-25T13:11:06.032Z,12.05
2023-11-25T13:12:09.391Z,10.85
2023-11-25T13:13:12.306Z,10.40
2023-11-25T13:14:15.258Z,9.85
2023-11-25T13:15:18.241Z,8.50
2023-11-25T13:16:23.659Z,9.23
2023-11-25T13:17:26.657Z,8.35
2023-11-25T13:18:30.264Z,7.97
2023-11-25T13:19:34.898Z,7.45
2023-11-25T13:20:38.105Z,6.62
2023-11-25T13:21:41.721Z,6.62
2023-11-25T13:22:45.757Z,6.72
2023-11-25T13:23:50.242Z,5.95
2023-11-25T13:24:53.093Z,5.65
2023-11-25T13:25:55.930Z,5.00
2023-11-25T13:26:58.828Z,4.75
2023-11-25T13:28:01.427Z,8.40
2023-11-25T13:29:05.454Z,11.23
2023-11-25T13:30:08.714Z,8.82
2023-11-25T13:31:11.320Z,8.63
2023-11-25T13:32:17.690Z,7.82
2023-11-25T13:33:21.221Z,7.22
2023-11-25T13:34:24.274Z,6.87
2023-11-25T13:35:27.266Z,6.15
2023-11-25T13:36:30.149Z,5.43
2023-11-25T13:37:33.155Z,5.05
2023-11-25T13:38:36.034Z,6.10
2023-11-25T13:39:39.018Z,6.57
2023-11-25T13:40:42.085Z,5.62
2023-11-25T13:41:45.886Z,6.28
2023-11-25T13:42:48.539Z,6.93
2023-11-25T13:43:51.557Z,6.00
2023-11-25T13:44:55.505Z,5.43
2023-11-25T13:45:58.986Z,5.68
2023-11-25T13:47:02.032Z,5.87
2023-11-25T13:48:06.384Z,4.72
2023-11-25T13:49:09.252Z,6.18
2023-11-25T13:50:12.110Z,5.80
2023-11-25T13:51:15.225Z,5.68
2023-11-25T13:52:17.912Z,6.32
2023-11-25T13:53:20.526Z,4.90
2023-11-25T13:54:25.961Z,4.90
2023-11-25T13:55:31.602Z,4.53
2023-11-25T13:56:34.588Z,4.15
2023-11-25T13:57:37.817Z,4.60
2023-11-25T13:58:40.807Z,9.77
2023-11-25T13:59:43.703Z,17.70
2023-11-25T14:00:46.956Z,24.70
2023-11-25T14:01:50.456Z,36.45
2023-11-25T14:02:54.227Z,33.78
2023-11-25T14:03:57.923Z,32.88
2023-11-25T14:05:00.591Z,31.77
2023-11-25T14:06:11.779Z,25.77
2023-11-25T14:07:15.423Z,24.87
2023-11-25T14:08:20.682Z,30.60
2023-11-25T14:09:24.679Z,41.45